createdAt,value
2016-07-31T00:00:37.847Z,0
2016-07-31T00:01:37.539Z,0
2016-07-31T00:03:37.235Z,0
2016-07-31T00:04:37.878Z,0
2016-07-31T00:05:37.230Z,0
2016-07-31T00:06:37.220Z,0
2016-07-31T00:07:38.928Z,0
2016-07-31T00:08:37.270Z,0
2016-07-31T00:10:07.407Z,0
2016-07-31T00:10:38.665Z,0
2016-07-31T00:11:38.658Z,0
2016-07-31T00:12:37.715Z,0
2016-07-31T00:13:37.217Z,0
2016-07-31T00:14:37.220Z,0
2016-07-31T00:15:37.202Z,0
2016-07-31T00:16:37.204Z,0
2016-07-31T00:17:37.197Z,0
2016-07-31T00:18:37.218Z,0
2016-07-31T00:19:37.896Z,0
2016-07-31T00:20:37.203Z,0
2016-07-31T00:21:37.189Z,0
2016-07-31T00:22:37.187Z,0
2016-07-31T00:23:37.187Z,0
2016-07-31T00:24:37.190Z,0
2016-07-31T00:25:37.874Z,0
2016-07-31T00:26:37.177Z,0
2016-07-31T00:27:37.178Z,0
2016-07-31T00:28:37.173Z,0
2016-07-31T00:29:37.170Z,0
2016-07-31T00:30:37.178Z,0
2016-07-31T00:31:37.161Z,0
2016-07-31T00:32:37.174Z,0
2016-07-31T00:33:37.172Z,0
2016-07-31T00:34:37.167Z,0
2016-07-31T00:35:37.154Z,0
2016-07-31T00:36:37.160Z,0
2016-07-31T00:37:37.161Z,0
2016-07-31T00:38:37.147Z,0
2016-07-31T00:39:37.146Z,0
2016-07-31T00:40:37.150Z,0
2016-07-31T00:41:37.143Z,0
2016-07-31T00:42:37.142Z,0
2016-07-31T00:43:37.140Z,0
2016-07-31T00:44:37.139Z,0
2016-07-31T00:45:37.135Z,0
2016-07-31T00:46:37.127Z,0
2016-07-31T00:47:37.142Z,0
2016-07-31T00:48:37.132Z,0
2016-07-31T00:49:37.122Z,0
2016-07-31T00:50:37.127Z,0
2016-07-31T00:51:37.122Z,0
2016-07-31T00:53:40.206Z,0
2016-07-31T00:54:41.115Z,0
2016-07-31T00:55:38.605Z,0
2016-07-31T00:56:39.178Z,0
2016-07-31T00:57:38.393Z,0
2016-07-31T00:58:37.107Z,0
2016-07-31T00:59:37.227Z,0
2016-07-31T01:00:37.098Z,0
2016-07-31T01:01:37.110Z,0
2016-07-31T01:03:38.998Z,0
2016-07-31T01:04:40.373Z,0
2016-07-31T01:05:38.313Z,0
2016-07-31T01:06:38.106Z,0
2016-07-31T01:07:37.090Z,0
2016-07-31T01:08:37.779Z,0
2016-07-31T01:09:37.078Z,0
2016-07-31T01:10:37.078Z,0
2016-07-31T01:11:37.080Z,0
2016-07-31T01:12:37.084Z,0
2016-07-31T01:13:37.058Z,0
2016-07-31T01:14:37.065Z,0
2016-07-31T01:15:37.059Z,0
2016-07-31T01:16:38.512Z,0
2016-07-31T01:17:37.668Z,0
2016-07-31T01:18:37.616Z,0
2016-07-31T01:19:37.355Z,0
2016-07-31T01:20:37.562Z,0
2016-07-31T01:21:37.607Z,0
2016-07-31T01:22:37.052Z,0
2016-07-31T01:23:37.296Z,0
2016-07-31T01:24:37.041Z,0
2016-07-31T01:26:07.682Z,0
2016-07-31T01:26:52.859Z,0
2016-07-31T01:27:38.591Z,0
2016-07-31T01:29:37.683Z,0
2016-07-31T01:30:37.736Z,0
2016-07-31T01:31:37.728Z,0
2016-07-31T01:32:37.026Z,0
2016-07-31T01:33:37.082Z,0
2016-07-31T01:34:37.018Z,0
2016-07-31T01:35:37.027Z,0
2016-07-31T01:36:37.019Z,0
2016-07-31T01:37:37.017Z,0
2016-07-31T01:38:37.015Z,0
2016-07-31T01:39:37.010Z,0
2016-07-31T01:40:37.003Z,0
2016-07-31T01:41:37.003Z,0
2016-07-31T01:42:37.006Z,0
2016-07-31T01:43:37.000Z,0
2016-07-31T01:44:37.002Z,0
2016-07-31T01:45:37.001Z,0
2016-07-31T01:46:36.998Z,0
2016-07-31T01:47:36.993Z,0
2016-07-31T01:48:36.990Z,0
2016-07-31T01:49:36.982Z,0
2016-07-31T01:50:36.993Z,0
2016-07-31T01:51:36.978Z,0
2016-07-31T01:52:36.986Z,0
2016-07-31T01:53:36.977Z,0
2016-07-31T01:54:37.378Z,0
2016-07-31T01:55:36.981Z,0
2016-07-31T01:56:36.967Z,0
2016-07-31T01:57:36.969Z,0
2016-07-31T01:58:36.969Z,0
2016-07-31T01:59:36.964Z,0
2016-07-31T02:00:36.969Z,0
2016-07-31T02:01:36.963Z,0
2016-07-31T02:02:36.949Z,0
2016-07-31T02:03:36.959Z,0
2016-07-31T02:04:36.953Z,0
2016-07-31T02:05:36.951Z,0
2016-07-31T02:06:36.947Z,0
2016-07-31T02:07:37.644Z,0
2016-07-31T02:08:36.942Z,0
2016-07-31T02:09:36.943Z,0
2016-07-31T02:10:36.941Z,0
2016-07-31T02:13:38.092Z,0
2016-07-31T02:14:39.634Z,0
2016-07-31T02:15:36.928Z,0
2016-07-31T02:16:36.924Z,0
2016-07-31T02:17:37.521Z,0
2016-07-31T02:18:36.914Z,0
2016-07-31T02:19:36.931Z,0
2016-07-31T02:20:39.955Z,0
2016-07-31T02:21:39.120Z,0
2016-07-31T02:22:39.603Z,0
2016-07-31T02:23:38.369Z,0
2016-07-31T02:24:39.002Z,0
2016-07-31T02:25:36.897Z,0
2016-07-31T02:26:36.903Z,0
2016-07-31T02:27:36.891Z,0
2016-07-31T02:28:36.890Z,0
2016-07-31T02:29:36.898Z,0
2016-07-31T02:30:36.889Z,0
2016-07-31T02:31:36.880Z,0
2016-07-31T02:32:36.880Z,0
2016-07-31T02:33:36.877Z,0
2016-07-31T02:34:52.936Z,0
2016-07-31T02:35:37.978Z,0
2016-07-31T02:36:37.724Z,0
2016-07-31T02:37:37.460Z,0
2016-07-31T02:38:36.916Z,0
2016-07-31T02:39:37.272Z,0
2016-07-31T02:40:37.265Z,0
2016-07-31T02:41:37.566Z,0
2016-07-31T02:42:36.867Z,0
2016-07-31T02:43:38.405Z,0
2016-07-31T02:44:38.149Z,0
2016-07-31T02:45:52.818Z,0
2016-07-31T02:46:52.815Z,0
2016-07-31T02:47:36.900Z,0
2016-07-31T02:48:37.632Z,0
2016-07-31T02:49:36.842Z,0
2016-07-31T02:50:36.839Z,0
2016-07-31T02:51:36.933Z,0
2016-07-31T02:52:36.829Z,0
2016-07-31T02:53:36.828Z,0
2016-07-31T02:54:36.828Z,0
2016-07-31T02:55:36.819Z,0
2016-07-31T02:56:36.818Z,0
2016-07-31T02:57:36.814Z,0
2016-07-31T02:58:36.814Z,0
2016-07-31T02:59:36.806Z,0
2016-07-31T03:00:36.806Z,0
2016-07-31T03:01:36.800Z,0
2016-07-31T03:02:36.803Z,0
2016-07-31T03:03:36.800Z,0
2016-07-31T03:04:36.787Z,0
2016-07-31T03:05:36.801Z,0
2016-07-31T03:06:36.787Z,0
2016-07-31T03:07:36.785Z,0
2016-07-31T03:08:36.786Z,0
2016-07-31T03:09:36.781Z,0
2016-07-31T03:10:36.776Z,0
2016-07-31T03:11:36.774Z,0
2016-07-31T03:12:36.774Z,5
2016-07-31T03:13:36.770Z,5
2016-07-31T03:14:36.769Z,5
2016-07-31T03:15:36.765Z,5
2016-07-31T03:16:36.750Z,5
2016-07-31T03:17:36.754Z,5
2016-07-31T03:18:36.755Z,5
2016-07-31T03:19:36.741Z,5
2016-07-31T03:20:36.753Z,5
2016-07-31T03:21:36.756Z,5
2016-07-31T03:22:36.744Z,10
2016-07-31T03:23:36.744Z,10
2016-07-31T03:24:36.752Z,10
2016-07-31T03:25:36.731Z,10
2016-07-31T03:26:37.428Z,10
2016-07-31T03:27:36.738Z,10
2016-07-31T03:28:36.731Z,10
2016-07-31T03:29:39.832Z,15
2016-07-31T03:30:39.459Z,15
2016-07-31T03:31:40.436Z,15
2016-07-31T03:32:39.566Z,15
2016-07-31T03:33:37.587Z,15
2016-07-31T03:34:38.095Z,15
2016-07-31T03:35:37.541Z,20
2016-07-31T03:36:36.719Z,20
2016-07-31T03:37:36.801Z,25
2016-07-31T03:38:39.256Z,25
2016-07-31T03:39:40.634Z,30
2016-07-31T03:40:38.342Z,30
2016-07-31T03:41:38.103Z,35
2016-07-31T03:42:36.687Z,35
2016-07-31T03:44:37.665Z,40
2016-07-31T03:45:36.890Z,45
2016-07-31T03:46:36.678Z,45
2016-07-31T03:47:36.679Z,45
2016-07-31T03:48:36.665Z,50
2016-07-31T03:49:36.694Z,50
2016-07-31T03:50:36.660Z,55
2016-07-31T03:51:36.659Z,55
2016-07-31T03:53:52.633Z,55
2016-07-31T03:54:38.107Z,55
2016-07-31T03:55:37.558Z,55
2016-07-31T03:57:36.797Z,55
2016-07-31T03:59:36.657Z,60
2016-07-31T04:00:36.646Z,60
2016-07-31T04:01:36.648Z,65
2016-07-31T04:02:51.707Z,75
2016-07-31T04:03:37.135Z,70
2016-07-31T04:05:06.472Z,75
2016-07-31T04:05:37.183Z,75
2016-07-31T04:06:36.637Z,75
2016-07-31T04:07:37.477Z,85
2016-07-31T04:08:36.625Z,90
2016-07-31T04:09:36.634Z,95
2016-07-31T04:10:36.622Z,95
2016-07-31T04:11:36.625Z,90
2016-07-31T04:12:36.628Z,90
2016-07-31T04:14:36.619Z,95
2016-07-31T04:15:36.617Z,100
2016-07-31T04:16:36.611Z,105
2016-07-31T04:17:36.621Z,105
2016-07-31T04:18:36.616Z,105
2016-07-31T04:19:36.618Z,125
2016-07-31T04:20:36.609Z,125
2016-07-31T04:21:36.604Z,120
2016-07-31T04:22:36.611Z,130
2016-07-31T04:23:36.609Z,175
2016-07-31T04:24:36.597Z,135
2016-07-31T04:25:36.602Z,130
2016-07-31T04:26:36.601Z,130
2016-07-31T04:27:36.599Z,160
2016-07-31T04:28:36.606Z,135
2016-07-31T04:29:36.598Z,115
2016-07-31T04:30:36.594Z,115
2016-07-31T04:31:36.592Z,110
2016-07-31T04:32:36.588Z,115
2016-07-31T04:33:36.592Z,125
2016-07-31T04:34:36.592Z,135
2016-07-31T04:35:36.598Z,155
2016-07-31T04:36:36.587Z,165
2016-07-31T04:37:36.597Z,175
2016-07-31T04:38:36.594Z,190
2016-07-31T04:39:36.585Z,200
2016-07-31T04:40:36.584Z,210
2016-07-31T04:41:36.592Z,215
2016-07-31T04:42:36.595Z,215
2016-07-31T04:43:36.593Z,205
2016-07-31T04:44:36.583Z,190
2016-07-31T04:45:36.595Z,190
2016-07-31T04:46:36.591Z,190
2016-07-31T04:47:39.586Z,200
2016-07-31T04:48:38.444Z,205
2016-07-31T04:49:40.678Z,215
2016-07-31T04:50:37.602Z,225
2016-07-31T04:51:37.512Z,235
2016-07-31T04:52:36.577Z,245
2016-07-31T04:53:36.574Z,250
2016-07-31T04:54:36.587Z,250
2016-07-31T04:55:36.580Z,250
2016-07-31T04:56:38.455Z,260
2016-07-31T04:58:38.844Z,280
2016-07-31T04:59:39.466Z,290
2016-07-31T05:00:36.798Z,300
2016-07-31T05:01:38.032Z,310
2016-07-31T05:02:36.795Z,315
2016-07-31T05:03:37.583Z,345
2016-07-31T05:04:36.579Z,325
2016-07-31T05:05:36.601Z,325
2016-07-31T05:06:36.580Z,345
2016-07-31T05:07:36.582Z,315
2016-07-31T05:08:36.600Z,295
2016-07-31T05:09:36.595Z,290
2016-07-31T05:10:36.580Z,295
2016-07-31T05:12:38.390Z,315
2016-07-31T05:14:07.174Z,330
2016-07-31T05:14:51.510Z,335
2016-07-31T05:15:38.145Z,335
2016-07-31T05:16:37.102Z,355
2016-07-31T05:17:36.593Z,420
2016-07-31T05:18:36.595Z,380
2016-07-31T05:19:36.600Z,380
2016-07-31T05:20:51.866Z,400
2016-07-31T05:21:52.014Z,370
2016-07-31T05:24:36.800Z,465
2016-07-31T05:25:37.459Z,775
2016-07-31T05:26:36.607Z,375
2016-07-31T05:27:36.818Z,375
2016-07-31T05:28:36.666Z,385
2016-07-31T05:29:36.616Z,610
2016-07-31T05:30:36.627Z,445
2016-07-31T05:31:36.625Z,835
2016-07-31T05:32:36.638Z,815
2016-07-31T05:33:36.633Z,880
2016-07-31T05:34:36.636Z,945
2016-07-31T05:35:37.332Z,660
2016-07-31T05:36:37.345Z,755
2016-07-31T05:37:36.650Z,950
2016-07-31T05:38:36.657Z,985
2016-07-31T05:39:36.662Z,770
2016-07-31T05:40:36.663Z,800
2016-07-31T05:41:36.678Z,940
2016-07-31T05:42:36.666Z,1150
2016-07-31T05:43:36.688Z,860
2016-07-31T05:44:36.685Z,805
2016-07-31T05:45:36.694Z,675
2016-07-31T05:46:36.694Z,575
2016-07-31T05:47:36.701Z,540
2016-07-31T05:48:36.712Z,535
2016-07-31T05:49:36.726Z,510
2016-07-31T05:50:36.726Z,515
2016-07-31T05:51:36.740Z,540
2016-07-31T05:52:36.753Z,560
2016-07-31T05:53:36.746Z,540
2016-07-31T05:54:36.865Z,600
2016-07-31T05:55:36.770Z,540
2016-07-31T05:56:36.767Z,560
2016-07-31T05:57:36.780Z,540
2016-07-31T05:58:36.791Z,545
2016-07-31T05:59:36.797Z,510
2016-07-31T06:00:36.810Z,525
2016-07-31T06:01:36.808Z,550
2016-07-31T06:02:36.816Z,550
2016-07-31T06:03:36.833Z,530
2016-07-31T06:04:36.832Z,545
2016-07-31T06:05:36.845Z,460
2016-07-31T06:06:53.240Z,450
2016-07-31T06:07:38.478Z,475
2016-07-31T06:08:39.859Z,500
2016-07-31T06:09:37.801Z,515
2016-07-31T06:10:37.524Z,535
2016-07-31T06:11:36.879Z,555
2016-07-31T06:12:37.886Z,560
2016-07-31T06:13:36.890Z,550
2016-07-31T06:14:36.894Z,520
2016-07-31T06:15:39.736Z,495
2016-07-31T06:16:38.376Z,485
2016-07-31T06:17:38.341Z,510
2016-07-31T06:18:38.904Z,600
2016-07-31T06:19:37.145Z,555
2016-07-31T06:20:36.948Z,720
2016-07-31T06:21:37.741Z,520
2016-07-31T06:22:36.950Z,550
2016-07-31T06:23:36.954Z,605
2016-07-31T06:24:36.978Z,640
2016-07-31T06:25:36.970Z,675
2016-07-31T06:26:36.976Z,715
2016-07-31T06:27:37.673Z,730
2016-07-31T06:28:36.995Z,690
2016-07-31T06:29:52.414Z,710
2016-07-31T06:32:51.933Z,690
2016-07-31T06:33:37.080Z,705
2016-07-31T06:34:37.150Z,730
2016-07-31T06:35:37.048Z,745
2016-07-31T06:36:37.051Z,815
2016-07-31T06:37:37.054Z,805
2016-07-31T06:38:37.755Z,800
2016-07-31T06:39:38.225Z,835
2016-07-31T06:40:52.111Z,790
2016-07-31T06:42:06.924Z,830
2016-07-31T06:42:37.094Z,840
2016-07-31T06:43:37.394Z,1015
2016-07-31T06:44:37.555Z,955
2016-07-31T06:45:37.127Z,1030
2016-07-31T06:46:37.128Z,980
2016-07-31T06:47:37.127Z,1325
2016-07-31T06:48:37.140Z,1105
2016-07-31T06:49:37.152Z,1640
2016-07-31T06:50:37.150Z,985
2016-07-31T06:51:37.162Z,1005
2016-07-31T06:52:37.174Z,845
2016-07-31T06:53:37.187Z,930
2016-07-31T06:54:37.187Z,965
2016-07-31T06:55:37.189Z,1775
2016-07-31T06:56:37.199Z,870
2016-07-31T06:57:37.216Z,845
2016-07-31T06:58:37.219Z,865
2016-07-31T06:59:37.254Z,960
2016-07-31T07:00:37.941Z,815
2016-07-31T07:01:37.248Z,840
2016-07-31T07:02:37.268Z,810
2016-07-31T07:03:37.275Z,980
2016-07-31T07:04:37.278Z,890
2016-07-31T07:05:37.285Z,1220
2016-07-31T07:06:37.299Z,1010
2016-07-31T07:07:37.303Z,760
2016-07-31T07:08:37.309Z,780
2016-07-31T07:09:37.332Z,920
2016-07-31T07:10:37.340Z,745
2016-07-31T07:11:37.342Z,735
2016-07-31T07:12:37.356Z,960
2016-07-31T07:13:37.363Z,955
2016-07-31T07:14:37.370Z,2170
2016-07-31T07:15:37.387Z,1095
2016-07-31T07:16:37.389Z,1415
2016-07-31T07:17:37.396Z,770
2016-07-31T07:18:37.413Z,745
2016-07-31T07:19:37.411Z,700
2016-07-31T07:20:37.430Z,640
2016-07-31T07:21:37.438Z,620
2016-07-31T07:22:37.445Z,620
2016-07-31T07:23:37.455Z,620
2016-07-31T07:24:37.464Z,625
2016-07-31T07:25:37.477Z,645
2016-07-31T07:26:37.490Z,680
2016-07-31T07:27:37.493Z,680
2016-07-31T07:28:37.506Z,670
2016-07-31T07:29:37.515Z,655
2016-07-31T07:30:37.529Z,665
2016-07-31T07:31:37.533Z,665
2016-07-31T07:32:37.537Z,645
2016-07-31T07:33:37.546Z,630
2016-07-31T07:34:37.555Z,615
2016-07-31T07:35:37.575Z,640
2016-07-31T07:36:37.570Z,650
2016-07-31T07:37:37.576Z,730
2016-07-31T07:38:37.586Z,860
2016-07-31T07:39:37.587Z,845
2016-07-31T07:40:37.605Z,955
2016-07-31T07:41:37.612Z,815
2016-07-31T07:42:38.537Z,785
2016-07-31T07:43:37.633Z,855
2016-07-31T07:44:37.649Z,2285
2016-07-31T07:45:37.643Z,1380
2016-07-31T07:46:37.656Z,1270
2016-07-31T07:48:38.424Z,2260
2016-07-31T07:49:39.480Z,2250
2016-07-31T07:50:52.605Z,1855
2016-07-31T07:51:38.212Z,1575
2016-07-31T07:52:38.053Z,1405
2016-07-31T07:53:37.709Z,1290
2016-07-31T07:54:38.530Z,1155
2016-07-31T07:55:37.739Z,1235
2016-07-31T07:56:38.395Z,1010
2016-07-31T07:57:38.411Z,1070
2016-07-31T07:58:37.774Z,1025
2016-07-31T07:59:37.834Z,1035
2016-07-31T08:00:37.797Z,1115
2016-07-31T08:01:38.714Z,1090
2016-07-31T08:02:37.912Z,1060
2016-07-31T08:03:37.980Z,1130
2016-07-31T08:04:37.835Z,1000
2016-07-31T08:05:37.856Z,905
2016-07-31T08:06:37.862Z,800
2016-07-31T08:07:37.869Z,770
2016-07-31T08:08:37.879Z,770
2016-07-31T08:09:37.890Z,810
2016-07-31T08:10:37.900Z,795
2016-07-31T08:11:37.907Z,770
2016-07-31T08:12:37.922Z,740
2016-07-31T08:13:37.938Z,725
2016-07-31T08:15:37.967Z,640
2016-07-31T08:16:37.965Z,640
2016-07-31T08:17:37.984Z,660
2016-07-31T08:18:37.991Z,665
2016-07-31T08:19:38.681Z,690
2016-07-31T08:20:38.007Z,725
2016-07-31T08:21:38.015Z,775
2016-07-31T08:22:38.021Z,1540
2016-07-31T08:23:38.037Z,840
2016-07-31T08:24:40.882Z,825
2016-07-31T08:25:39.868Z,860
2016-07-31T08:26:40.422Z,905
2016-07-31T08:27:39.276Z,820
2016-07-31T08:28:39.897Z,795
2016-07-31T08:30:38.705Z,800
2016-07-31T08:31:38.111Z,760
2016-07-31T08:32:38.120Z,705
2016-07-31T08:33:40.418Z,660
2016-07-31T08:34:41.342Z,670
2016-07-31T08:35:40.708Z,770
2016-07-31T08:36:40.063Z,785
2016-07-31T08:37:39.121Z,810
2016-07-31T08:38:39.277Z,815
2016-07-31T08:39:38.799Z,810
2016-07-31T08:40:38.199Z,830
2016-07-31T08:41:38.215Z,840
2016-07-31T08:42:38.213Z,865
2016-07-31T08:43:38.233Z,895
2016-07-31T08:45:38.246Z,870
2016-07-31T08:46:38.253Z,840
2016-07-31T08:47:38.263Z,830
2016-07-31T08:48:38.273Z,810
2016-07-31T08:49:38.282Z,780
2016-07-31T08:50:38.290Z,750
2016-07-31T08:51:38.295Z,735
2016-07-31T08:52:38.305Z,710
2016-07-31T08:53:38.313Z,700
2016-07-31T08:54:38.325Z,715
2016-07-31T08:55:38.342Z,745
2016-07-31T08:56:38.337Z,780
2016-07-31T08:57:38.368Z,835
2016-07-31T08:58:38.365Z,940
2016-07-31T08:59:38.374Z,960
2016-07-31T09:00:38.374Z,885
2016-07-31T09:01:38.391Z,835
2016-07-31T09:02:38.401Z,855
2016-07-31T09:03:38.407Z,820
2016-07-31T09:04:38.428Z,770
2016-07-31T09:05:38.425Z,740
2016-07-31T09:08:54.284Z,655
2016-07-31T09:09:39.163Z,650
2016-07-31T09:10:38.674Z,645
2016-07-31T09:11:39.638Z,645
2016-07-31T09:12:38.492Z,660
2016-07-31T09:13:38.502Z,675
2016-07-31T09:14:38.515Z,680
2016-07-31T09:15:53.639Z,690
2016-07-31T09:16:39.187Z,715
2016-07-31T09:17:39.233Z,725
2016-07-31T09:18:39.198Z,745
2016-07-31T09:19:39.107Z,735
2016-07-31T09:20:38.555Z,735
2016-07-31T09:21:39.237Z,730
2016-07-31T09:22:38.583Z,715
2016-07-31T09:23:38.591Z,725
2016-07-31T09:24:38.595Z,755
2016-07-31T09:25:38.607Z,750
2016-07-31T09:26:38.613Z,750
2016-07-31T09:27:38.616Z,750
2016-07-31T09:28:38.634Z,760
2016-07-31T09:29:38.638Z,760
2016-07-31T09:30:38.652Z,745
2016-07-31T09:31:38.666Z,745
2016-07-31T09:32:38.667Z,745
2016-07-31T09:33:38.673Z,770
2016-07-31T09:34:38.685Z,805
2016-07-31T09:35:38.685Z,800
2016-07-31T09:36:38.702Z,780
2016-07-31T09:37:38.713Z,795
2016-07-31T09:38:38.714Z,815
2016-07-31T09:39:38.726Z,815
2016-07-31T09:40:38.743Z,805
2016-07-31T09:41:38.741Z,780
2016-07-31T09:42:42.345Z,785
2016-07-31T09:43:41.993Z,860
2016-07-31T09:44:41.858Z,890
2016-07-31T09:45:39.461Z,875
2016-07-31T09:46:41.038Z,820
2016-07-31T09:47:39.245Z,765
2016-07-31T09:48:39.143Z,775
2016-07-31T09:49:38.826Z,790
2016-07-31T09:50:38.811Z,760
2016-07-31T09:51:40.940Z,785
2016-07-31T09:52:41.955Z,855
2016-07-31T09:53:40.380Z,870
2016-07-31T09:54:40.629Z,855
2016-07-31T09:55:40.521Z,830
2016-07-31T09:56:39.119Z,820
2016-07-31T09:57:39.524Z,805
2016-07-31T09:58:39.099Z,790
2016-07-31T09:59:38.899Z,805
2016-07-31T10:00:38.904Z,840
2016-07-31T10:01:38.912Z,850
2016-07-31T10:02:38.909Z,845
2016-07-31T10:03:38.932Z,845
2016-07-31T10:04:39.632Z,850
2016-07-31T10:05:39.640Z,880
2016-07-31T10:06:38.953Z,900
2016-07-31T10:07:39.667Z,895
2016-07-31T10:08:39.673Z,885
2016-07-31T10:09:38.979Z,865
2016-07-31T10:10:38.987Z,835
2016-07-31T10:11:38.998Z,845
2016-07-31T10:12:39.007Z,875
2016-07-31T10:13:39.022Z,900
2016-07-31T10:14:39.030Z,895
2016-07-31T10:15:39.031Z,885
2016-07-31T10:16:39.054Z,880
2016-07-31T10:17:39.074Z,870
2016-07-31T10:18:39.062Z,850
2016-07-31T10:19:39.077Z,820
2016-07-31T10:20:39.084Z,785
2016-07-31T10:21:39.098Z,770
2016-07-31T10:22:39.105Z,745
2016-07-31T10:23:39.112Z,730
2016-07-31T10:24:54.346Z,725
2016-07-31T10:25:40.040Z,725
2016-07-31T10:26:39.943Z,730
2016-07-31T10:29:39.970Z,775
2016-07-31T10:30:39.178Z,785
2016-07-31T10:31:39.192Z,780
2016-07-31T10:32:39.201Z,775
2016-07-31T10:34:55.143Z,740
2016-07-31T10:35:40.682Z,720
2016-07-31T10:36:40.241Z,695
2016-07-31T10:37:40.643Z,640
2016-07-31T10:38:39.255Z,580
2016-07-31T10:39:39.263Z,520
2016-07-31T10:40:39.276Z,485
2016-07-31T10:41:39.287Z,485
2016-07-31T10:42:39.281Z,490
2016-07-31T10:43:39.306Z,500
2016-07-31T10:44:39.322Z,520
2016-07-31T10:45:39.322Z,535
2016-07-31T10:46:39.328Z,530
2016-07-31T10:47:39.334Z,515
2016-07-31T10:48:39.350Z,555
2016-07-31T10:49:39.352Z,630
2016-07-31T10:50:39.357Z,685
2016-07-31T10:51:39.373Z,715
2016-07-31T10:52:39.374Z,725
2016-07-31T10:53:39.395Z,725
2016-07-31T10:54:39.410Z,720
2016-07-31T10:55:39.411Z,695
2016-07-31T10:56:39.415Z,690
2016-07-31T10:57:39.426Z,650
2016-07-31T10:58:39.433Z,610
2016-07-31T10:59:39.428Z,625
2016-07-31T11:01:41.770Z,680
2016-07-31T11:02:41.006Z,675
2016-07-31T11:03:41.794Z,685
2016-07-31T11:04:42.143Z,660
2016-07-31T11:05:41.151Z,665
2016-07-31T11:06:40.201Z,725
2016-07-31T11:07:39.546Z,805
2016-07-31T11:08:39.518Z,820
2016-07-31T11:09:39.534Z,770
2016-07-31T11:10:41.800Z,715
2016-07-31T11:11:43.206Z,660
2016-07-31T11:12:41.029Z,655
2016-07-31T11:13:41.849Z,645
2016-07-31T11:14:41.329Z,575
2016-07-31T11:15:39.900Z,500
2016-07-31T11:16:39.589Z,455
2016-07-31T11:17:39.604Z,415
2016-07-31T11:18:39.641Z,365
2016-07-31T11:19:39.622Z,335
2016-07-31T11:20:39.623Z,320
2016-07-31T11:21:39.640Z,310
2016-07-31T11:22:39.641Z,335
2016-07-31T11:23:39.656Z,370
2016-07-31T11:24:39.657Z,370
2016-07-31T11:25:39.660Z,365
2016-07-31T11:26:39.671Z,370
2016-07-31T11:27:39.687Z,405
2016-07-31T11:28:39.689Z,445
2016-07-31T11:29:39.695Z,435
2016-07-31T11:30:39.716Z,420
2016-07-31T11:31:40.422Z,475
2016-07-31T11:32:39.716Z,520
2016-07-31T11:33:39.736Z,515
2016-07-31T11:34:39.743Z,535
2016-07-31T11:35:39.754Z,530
2016-07-31T11:36:39.762Z,535
2016-07-31T11:37:39.768Z,545
2016-07-31T11:38:39.772Z,565
2016-07-31T11:39:39.785Z,555
2016-07-31T11:40:39.790Z,555
2016-07-31T11:41:39.809Z,565
2016-07-31T11:42:41.208Z,565
2016-07-31T11:43:41.561Z,550
2016-07-31T11:44:55.040Z,590
2016-07-31T11:45:40.088Z,570
2016-07-31T11:46:40.945Z,540
2016-07-31T11:47:41.241Z,475
2016-07-31T11:48:39.860Z,445
2016-07-31T11:49:39.911Z,455
2016-07-31T11:50:39.863Z,455
2016-07-31T11:53:10.327Z,555
2016-07-31T11:53:40.967Z,565
2016-07-31T11:54:42.455Z,555
2016-07-31T11:55:41.322Z,565
2016-07-31T11:56:39.931Z,625
2016-07-31T11:57:39.935Z,685
2016-07-31T11:58:39.942Z,695
2016-07-31T11:59:39.949Z,705
2016-07-31T12:00:39.972Z,650
2016-07-31T12:01:39.963Z,575
2016-07-31T12:02:39.969Z,485
2016-07-31T12:03:39.985Z,425
2016-07-31T12:04:39.994Z,400
2016-07-31T12:05:39.990Z,400
2016-07-31T12:06:40.020Z,415
2016-07-31T12:07:40.019Z,440
2016-07-31T12:08:40.067Z,445
2016-07-31T12:09:40.029Z,455
2016-07-31T12:10:40.043Z,460
2016-07-31T12:11:40.046Z,460
2016-07-31T12:12:40.054Z,480
2016-07-31T12:13:40.070Z,510
2016-07-31T12:14:40.071Z,550
2016-07-31T12:15:40.095Z,595
2016-07-31T12:16:40.088Z,615
2016-07-31T12:17:40.099Z,605
2016-07-31T12:18:40.102Z,600
2016-07-31T12:19:44.190Z,590
2016-07-31T12:20:43.874Z,560
2016-07-31T12:21:42.000Z,500
2016-07-31T12:22:43.264Z,495
2016-07-31T12:23:40.364Z,535
2016-07-31T12:24:40.150Z,585
2016-07-31T12:25:40.622Z,650
2016-07-31T12:26:40.174Z,700
2016-07-31T12:27:40.168Z,680
2016-07-31T12:28:42.154Z,570
2016-07-31T12:31:43.005Z,540
2016-07-31T12:32:40.582Z,615
2016-07-31T12:33:40.575Z,660
2016-07-31T12:34:40.238Z,680
2016-07-31T12:35:40.260Z,695
2016-07-31T12:36:40.246Z,670
2016-07-31T12:37:40.259Z,620
2016-07-31T12:38:40.268Z,575
2016-07-31T12:39:40.269Z,545
2016-07-31T12:40:40.293Z,540
2016-07-31T12:41:40.299Z,565
2016-07-31T12:42:40.299Z,545
2016-07-31T12:43:40.312Z,480
2016-07-31T12:44:40.321Z,425
2016-07-31T12:45:40.328Z,395
2016-07-31T12:46:40.336Z,370
2016-07-31T12:47:40.345Z,365
2016-07-31T12:48:41.058Z,395
2016-07-31T12:49:40.355Z,425
2016-07-31T12:50:40.369Z,455
2016-07-31T12:51:40.382Z,495
2016-07-31T12:52:40.395Z,515
2016-07-31T12:53:41.095Z,535
2016-07-31T12:54:40.508Z,570
2016-07-31T12:55:40.418Z,605
2016-07-31T12:56:40.418Z,640
2016-07-31T12:57:40.429Z,670
2016-07-31T12:58:40.438Z,670
2016-07-31T12:59:40.445Z,680
2016-07-31T13:01:57.082Z,690
2016-07-31T13:03:55.392Z,685
2016-07-31T13:04:41.087Z,680
2016-07-31T13:05:40.505Z,680
2016-07-31T13:06:40.605Z,680
2016-07-31T13:07:41.208Z,680
2016-07-31T13:08:40.515Z,695
2016-07-31T13:09:56.347Z,655
2016-07-31T13:10:56.602Z,610
2016-07-31T13:12:11.230Z,600
2016-07-31T13:12:41.303Z,600
2016-07-31T13:13:40.759Z,590
2016-07-31T13:14:41.261Z,605
2016-07-31T13:15:41.529Z,650
2016-07-31T13:16:40.586Z,650
2016-07-31T13:17:40.590Z,650
2016-07-31T13:18:40.615Z,650
2016-07-31T13:19:40.611Z,650
2016-07-31T13:20:40.614Z,655
2016-07-31T13:21:40.632Z,665
2016-07-31T13:22:40.639Z,665
2016-07-31T13:23:40.642Z,665
2016-07-31T13:24:40.654Z,660
2016-07-31T13:25:40.663Z,665
2016-07-31T13:26:40.681Z,660
2016-07-31T13:27:40.680Z,650
2016-07-31T13:28:40.691Z,650
2016-07-31T13:29:40.698Z,625
2016-07-31T13:30:40.712Z,600
2016-07-31T13:31:40.725Z,600
2016-07-31T13:32:40.721Z,560
2016-07-31T13:33:40.738Z,540
2016-07-31T13:34:40.746Z,500
2016-07-31T13:35:40.760Z,465
2016-07-31T13:36:40.762Z,430
2016-07-31T13:37:43.806Z,415
2016-07-31T13:39:42.226Z,440
2016-07-31T13:40:41.406Z,430
2016-07-31T13:41:42.343Z,410
2016-07-31T13:42:40.811Z,390
2016-07-31T13:43:40.844Z,370
2016-07-31T13:44:40.828Z,360
2016-07-31T13:45:40.927Z,365
2016-07-31T13:46:43.178Z,380
2016-07-31T13:47:58.773Z,400
2016-07-31T13:48:44.405Z,420
2016-07-31T13:49:43.806Z,445
2016-07-31T13:50:42.091Z,450
2016-07-31T13:51:40.880Z,445
2016-07-31T13:52:40.909Z,435
2016-07-31T13:53:40.915Z,435
2016-07-31T13:54:40.906Z,440
2016-07-31T13:55:40.930Z,465
2016-07-31T13:56:40.937Z,485
2016-07-31T13:57:40.941Z,505
2016-07-31T13:58:40.956Z,500
2016-07-31T13:59:40.963Z,490
2016-07-31T14:00:40.962Z,485
2016-07-31T14:01:40.986Z,490
2016-07-31T14:02:40.985Z,495
2016-07-31T14:03:40.991Z,500
2016-07-31T14:04:40.998Z,500
2016-07-31T14:05:41.691Z,485
2016-07-31T14:06:41.003Z,475
2016-07-31T14:07:41.023Z,465
2016-07-31T14:08:41.027Z,470
2016-07-31T14:09:41.038Z,490
2016-07-31T14:10:41.049Z,500
2016-07-31T14:11:41.049Z,510
2016-07-31T14:12:41.052Z,520
2016-07-31T14:13:41.054Z,535
2016-07-31T14:14:41.074Z,545
2016-07-31T14:15:41.088Z,535
2016-07-31T14:16:41.095Z,525
2016-07-31T14:17:41.785Z,525
2016-07-31T14:18:41.096Z,525
2016-07-31T14:19:42.205Z,530
2016-07-31T14:20:42.014Z,535
2016-07-31T14:21:41.987Z,515
2016-07-31T14:22:41.586Z,490
2016-07-31T14:24:41.245Z,500
2016-07-31T14:25:41.151Z,535
2016-07-31T14:26:41.154Z,560
2016-07-31T14:27:41.166Z,560
2016-07-31T14:28:56.493Z,550
2016-07-31T14:31:56.217Z,525
2016-07-31T14:32:56.113Z,520
2016-07-31T14:33:41.506Z,515
2016-07-31T14:34:41.208Z,525
2016-07-31T14:35:41.426Z,520
2016-07-31T14:36:41.233Z,500